sensor_id;sensor_type;location;lat;lon;timestamp;pressure;altitude;pressure_sealevel;temperature;humidity
62057;BME280;48016;50.284;18.860;2023-02-11T00:00:39;99763.10;;;-2.99;71.42
62057;BME280;48016;50.284;18.860;2023-02-11T00:03:23;99761.54;;;-2.99;71.27
62057;BME280;48016;50.284;18.860;2023-02-11T00:06:00;99759.53;;;-3.00;71.16
62057;BME280;48016;50.284;18.860;2023-02-11T00:08:28;99758.37;;;-3.03;71.12
62057;BME280;48016;50.284;18.860;2023-02-11T00:10:56;99754.80;;;-3.07;71.33
62057;BME280;48016;50.284;18.860;2023-02-11T00:13:24;99757.54;;;-3.10;71.60
62057;BME280;48016;50.284;18.860;2023-02-11T00:15:50;99756.83;;;-3.12;71.74
62057;BME280;48016;50.284;18.860;2023-02-11T00:18:17;99761.38;;;-3.09;71.77
62057;BME280;48016;50.284;18.860;2023-02-11T00:20:44;99758.19;;;-3.09;71.80
62057;BME280;48016;50.284;18.860;2023-02-11T00:23:11;99759.71;;;-3.09;72.20
62057;BME280;48016;50.284;18.860;2023-02-11T00:25:39;99755.73;;;-3.07;71.96
62057;BME280;48016;50.284;18.860;2023-02-11T00:28:08;99748.14;;;-3.07;71.88
62057;BME280;48016;50.284;18.860;2023-02-11T00:30:35;99748.39;;;-3.08;71.80
62057;BME280;48016;50.284;18.860;2023-02-11T00:33:02;99747.65;;;-3.10;71.89
62057;BME280;48016;50.284;18.860;2023-02-11T00:35:29;99745.64;;;-3.11;72.01
62057;BME280;48016;50.284;18.860;2023-02-11T00:37:56;99741.52;;;-3.12;72.02
62057;BME280;48016;50.284;18.860;2023-02-11T00:40:23;99739.02;;;-3.12;72.37
62057;BME280;48016;50.284;18.860;2023-02-11T00:42:50;99731.73;;;-3.11;72.49
62057;BME280;48016;50.284;18.860;2023-02-11T00:45:16;99736.67;;;-3.11;72.59
62057;BME280;48016;50.284;18.860;2023-02-11T00:47:43;99726.70;;;-3.10;72.45
62057;BME280;48016;50.284;18.860;2023-02-11T00:50:10;99718.16;;;-3.09;72.56
62057;BME280;48016;50.284;18.860;2023-02-11T00:52:36;99716.42;;;-3.10;72.45
62057;BME280;48016;50.284;18.860;2023-02-11T00:55:03;99706.51;;;-3.09;72.49
62057;BME280;48016;50.284;18.860;2023-02-11T00:57:30;99695.55;;;-3.09;72.62
62057;BME280;48016;50.284;18.860;2023-02-11T00:59:56;99685.77;;;-3.08;72.76
62057;BME280;48016;50.284;18.860;2023-02-11T01:02:23;99670.63;;;-3.08;72.62
62057;BME280;48016;50.284;18.860;2023-02-11T01:04:50;99662.86;;;-3.10;72.81
62057;BME280;48016;50.284;18.860;2023-02-11T01:07:17;99666.20;;;-3.12;72.96
62057;BME280;48016;50.284;18.860;2023-02-11T01:09:43;99666.10;;;-3.13;72.81
62057;BME280;48016;50.284;18.860;2023-02-11T01:12:10;99662.91;;;-3.15;72.86
62057;BME280;48016;50.284;18.860;2023-02-11T01:14:37;99653.69;;;-3.18;72.77
62057;BME280;48016;50.284;18.860;2023-02-11T01:17:05;99643.78;;;-3.22;72.69
62057;BME280;48016;50.284;18.860;2023-02-11T01:19:32;99640.27;;;-3.24;72.67
62057;BME280;48016;50.284;18.860;2023-02-11T01:21:58;99637.46;;;-3.27;73.06
62057;BME280;48016;50.284;18.860;2023-02-11T01:24:26;99640.80;;;-3.26;72.99
62057;BME280;48016;50.284;18.860;2023-02-11T01:26:53;99648.29;;;-3.25;73.21
62057;BME280;48016;50.284;18.860;2023-02-11T01:29:20;99652.20;;;-3.24;73.50
62057;BME280;48016;50.284;18.860;2023-02-11T01:31:47;99654.67;;;-3.22;73.49
62057;BME280;48016;50.284;18.860;2023-02-11T01:34:15;99649.10;;;-3.18;73.65
62057;BME280;48016;50.284;18.860;2023-02-11T01:36:42;99642.03;;;-3.14;73.64
62057;BME280;48016;50.284;18.860;2023-02-11T01:39:08;99632.96;;;-3.11;73.66
62057;BME280;48016;50.284;18.860;2023-02-11T01:41:35;99632.92;;;-3.09;73.66
62057;BME280;48016;50.284;18.860;2023-02-11T01:44:26;99637.07;;;-3.06;73.89
62057;BME280;48016;50.284;18.860;2023-02-11T01:46:53;99632.88;;;-3.02;73.99
62057;BME280;48016;50.284;18.860;2023-02-11T01:49:25;99626.25;;;-2.99;73.87
62057;BME280;48016;50.284;18.860;2023-02-11T01:52:09;99620.71;;;-2.97;74.09
62057;BME280;48016;50.284;18.860;2023-02-11T01:54:41;99616.50;;;-2.93;74.10
62057;BME280;48016;50.284;18.860;2023-02-11T01:57:30;99622.39;;;-2.89;73.99
62057;BME280;48016;50.284;18.860;2023-02-11T02:00:05;99617.54;;;-2.87;74.22
62057;BME280;48016;50.284;18.860;2023-02-11T02:03:02;99613.00;;;-2.83;74.34
62057;BME280;48016;50.284;18.860;2023-02-11T02:05:35;99611.27;;;-2.80;74.28
62057;BME280;48016;50.284;18.860;2023-02-11T02:10:43;99598.75;;;-2.76;74.49
62057;BME280;48016;50.284;18.860;2023-02-11T02:13:11;99589.47;;;-2.75;74.57
62057;BME280;48016;50.284;18.860;2023-02-11T02:15:40;99585.76;;;-2.73;74.61
62057;BME280;48016;50.284;18.860;2023-02-11T02:37:43;99532.77;;;-2.55;74.65
62057;BME280;48016;50.284;18.860;2023-02-11T02:40:20;99537.98;;;-2.52;74.63
62057;BME280;48016;50.284;18.860;2023-02-11T02:42:49;99529.18;;;-2.51;74.43
62057;BME280;48016;50.284;18.860;2023-02-11T02:45:16;99520.14;;;-2.50;74.67
62057;BME280;48016;50.284;18.860;2023-02-11T02:47:44;99514.92;;;-2.51;74.61
62057;BME280;48016;50.284;18.860;2023-02-11T02:50:12;99502.59;;;-2.49;74.74
62057;BME280;48016;50.284;18.860;2023-02-11T03:03:42;99490.66;;;-2.35;74.38
62057;BME280;48016;50.284;18.860;2023-02-11T03:06:22;99485.77;;;-2.30;74.30
62057;BME280;48016;50.284;18.860;2023-02-11T03:08:59;99486.50;;;-2.24;74.38
62057;BME280;48016;50.284;18.860;2023-02-11T03:11:29;99490.80;;;-2.19;74.37
62057;BME280;48016;50.284;18.860;2023-02-11T03:13:56;99495.52;;;-2.15;74.44
62057;BME280;48016;50.284;18.860;2023-02-11T03:16:27;99494.23;;;-2.11;74.37
62057;BME280;48016;50.284;18.860;2023-02-11T03:19:15;99495.52;;;-2.07;74.21
62057;BME280;48016;50.284;18.860;2023-02-11T03:21:46;99499.16;;;-2.05;74.15
62057;BME280;48016;50.284;18.860;2023-02-11T03:24:28;99493.13;;;-2.02;74.09
62057;BME280;48016;50.284;18.860;2023-02-11T03:27:00;99488.34;;;-2.01;73.86
62057;BME280;48016;50.284;18.860;2023-02-11T03:32:19;99485.03;;;-2.01;73.63
62057;BME280;48016;50.284;18.860;2023-02-11T03:34:53;99483.00;;;-2.02;73.34
62057;BME280;48016;50.284;18.860;2023-02-11T03:37:51;99479.23;;;-2.03;73.30
62057;BME280;48016;50.284;18.860;2023-02-11T03:40:24;99468.88;;;-2.04;73.32
62057;BME280;48016;50.284;18.860;2023-02-11T03:42:58;99461.73;;;-2.05;73.06
62057;BME280;48016;50.284;18.860;2023-02-11T03:45:26;99457.38;;;-2.08;73.06
62057;BME280;48016;50.284;18.860;2023-02-11T03:47:59;99461.19;;;-2.10;73.00
62057;BME280;48016;50.284;18.860;2023-02-11T03:50:29;99452.44;;;-2.13;73.00
62057;BME280;48016;50.284;18.860;2023-02-11T03:53:00;99448.64;;;-2.14;73.06
62057;BME280;48016;50.284;18.860;2023-02-11T03:55:28;99436.23;;;-2.14;73.06
62057;BME280;48016;50.284;18.860;2023-02-11T03:57:58;99422.52;;;-2.14;73.16
62057;BME280;48016;50.284;18.860;2023-02-11T04:00:34;99417.11;;;-2.15;73.19
62057;BME280;48016;50.284;18.860;2023-02-11T04:03:03;99411.02;;;-2.14;73.20
62057;BME280;48016;50.284;18.860;2023-02-11T04:05:30;99406.04;;;-2.14;73.20
62057;BME280;48016;50.284;18.860;2023-02-11T04:07:57;99407.04;;;-2.15;73.13
62057;BME280;48016;50.284;18.860;2023-02-11T04:10:24;99399.23;;;-2.15;73.20
62057;BME280;48016;50.284;18.860;2023-02-11T04:12:51;99389.48;;;-2.14;73.21
62057;BME280;48016;50.284;18.860;2023-02-11T04:15:18;99388.03;;;-2.14;73.16
62057;BME280;48016;50.284;18.860;2023-02-11T04:17:45;99385.44;;;-2.13;73.11
62057;BME280;48016;50.284;18.860;2023-02-11T04:20:11;99372.96;;;-2.12;73.06
62057;BME280;48016;50.284;18.860;2023-02-11T04:22:38;99369.04;;;-2.11;72.95
62057;BME280;48016;50.284;18.860;2023-02-11T04:25:06;99365.97;;;-2.12;72.75
62057;BME280;48016;50.284;18.860;2023-02-11T04:27:33;99368.09;;;-2.14;72.71
62057;BME280;48016;50.284;18.860;2023-02-11T04:29:59;99369.95;;;-2.15;72.65
62057;BME280;48016;50.284;18.860;2023-02-11T04:32:26;99365.27;;;-2.16;72.45
62057;BME280;48016;50.284;18.860;2023-02-11T04:34:53;99363.72;;;-2.18;72.54
62057;BME280;48016;50.284;18.860;2023-02-11T04:37:20;99366.29;;;-2.19;72.58
62057;BME280;48016;50.284;18.860;2023-02-11T04:39:47;99370.27;;;-2.20;72.48
62057;BME280;48016;50.284;18.860;2023-02-11T04:42:14;99372.46;;;-2.21;72.52
62057;BME280;48016;50.284;18.860;2023-02-11T04:44:41;99376.37;;;-2.21;72.67
62057;BME280;48016;50.284;18.860;2023-02-11T04:47:07;99382.13;;;-2.20;72.73
62057;BME280;48016;50.284;18.860;2023-02-11T04:49:34;99390.17;;;-2.19;72.87
62057;BME280;48016;50.284;18.860;2023-02-11T04:52:01;99379.89;;;-2.17;72.91
62057;BME280;48016;50.284;18.860;2023-02-11T04:54:27;99365.77;;;-2.16;72.87
62057;BME280;48016;50.284;18.860;2023-02-11T04:56:54;99374.17;;;-2.13;72.96
62057;BME280;48016;50.284;18.860;2023-02-11T04:59:21;99377.83;;;-2.11;73.07
62057;BME280;48016;50.284;18.860;2023-02-11T05:01:47;99379.38;;;-2.08;73.22
62057;BME280;48016;50.284;18.860;2023-02-11T05:04:15;99372.38;;;-2.06;73.05
62057;BME280;48016;50.284;18.860;2023-02-11T05:06:43;99376.44;;;-2.04;73.34
62057;BME280;48016;50.284;18.860;2023-02-11T05:09:11;99374.98;;;-2.01;73.18
62057;BME280;48016;50.284;18.860;2023-02-11T05:11:37;99371.11;;;-1.98;73.18
62057;BME280;48016;50.284;18.860;2023-02-11T05:14:05;99370.15;;;-1.95;73.17
62057;BME280;48016;50.284;18.860;2023-02-11T05:16:32;99360.82;;;-1.92;73.14
62057;BME280;48016;50.284;18.860;2023-02-11T05:18:59;99363.91;;;-1.89;73.13
62057;BME280;48016;50.284;18.860;2023-02-11T05:21:25;99353.33;;;-1.88;73.18
62057;BME280;48016;50.284;18.860;2023-02-11T05:23:52;99360.21;;;-1.86;73.01
62057;BME280;48016;50.284;18.860;2023-02-11T05:26:19;99366.13;;;-1.85;72.97
62057;BME280;48016;50.284;18.860;2023-02-11T05:28:46;99367.27;;;-1.84;72.76
62057;BME280;48016;50.284;18.860;2023-02-11T05:31:13;99379.52;;;-1.84;72.92
62057;BME280;48016;50.284;18.860;2023-02-11T05:33:40;99378.13;;;-1.85;72.94
62057;BME280;48016;50.284;18.860;2023-02-11T05:36:10;99374.35;;;-1.84;73.06
62057;BME280;48016;50.284;18.860;2023-02-11T05:38:37;99381.01;;;-1.81;73.04
62057;BME280;48016;50.284;18.860;2023-02-11T05:41:05;99379.77;;;-1.79;73.04
62057;BME280;48016;50.284;18.860;2023-02-11T05:43:32;99374.97;;;-1.77;73.08
62057;BME280;48016;50.284;18.860;2023-02-11T05:46:01;99379.30;;;-1.78;73.24
62057;BME280;48016;50.284;18.860;2023-02-11T05:48:29;99378.62;;;-1.75;73.19
62057;BME280;48016;50.284;18.860;2023-02-11T05:50:56;99364.52;;;-1.72;73.17
62057;BME280;48016;50.284;18.860;2023-02-11T05:53:23;99350.73;;;-1.70;73.26
62057;BME280;48016;50.284;18.860;2023-02-11T05:55:50;99341.40;;;-1.68;73.32
62057;BME280;48016;50.284;18.860;2023-02-11T05:58:17;99346.00;;;-1.67;73.29
62057;BME280;48016;50.284;18.860;2023-02-11T06:00:43;99338.08;;;-1.65;73.32
62057;BME280;48016;50.284;18.860;2023-02-11T06:03:10;99324.14;;;-1.64;73.39
62057;BME280;48016;50.284;18.860;2023-02-11T06:05:37;99329.70;;;-1.65;73.32
62057;BME280;48016;50.284;18.860;2023-02-11T06:08:04;99329.45;;;-1.66;73.23
62057;BME280;48016;50.284;18.860;2023-02-11T06:10:31;99328.59;;;-1.66;73.13
62057;BME280;48016;50.284;18.860;2023-02-11T06:12:57;99329.63;;;-1.66;73.03
62057;BME280;48016;50.284;18.860;2023-02-11T06:15:24;99331.24;;;-1.66;72.92
62057;BME280;48016;50.284;18.860;2023-02-11T06:17:51;99335.91;;;-1.67;72.86
62057;BME280;48016;50.284;18.860;2023-02-11T06:20:18;99327.17;;;-1.68;72.98
62057;BME280;48016;50.284;18.860;2023-02-11T06:22:45;99316.22;;;-1.68;73.04
62057;BME280;48016;50.284;18.860;2023-02-11T06:25:12;99323.14;;;-1.68;73.10
62057;BME280;48016;50.284;18.860;2023-02-11T06:27:39;99324.75;;;-1.68;73.31
62057;BME280;48016;50.284;18.860;2023-02-11T06:30:07;99329.91;;;-1.67;73.27
62057;BME280;48016;50.284;18.860;2023-02-11T06:32:34;99321.92;;;-1.65;73.36
62057;BME280;48016;50.284;18.860;2023-02-11T06:35:01;99317.71;;;-1.63;73.33
62057;BME280;48016;50.284;18.860;2023-02-11T06:37:28;99312.64;;;-1.62;73.33
62057;BME280;48016;50.284;18.860;2023-02-11T06:39:55;99313.60;;;-1.61;73.37
62057;BME280;48016;50.284;18.860;2023-02-11T06:42:21;99314.95;;;-1.58;73.38
62057;BME280;48016;50.284;18.860;2023-02-11T06:44:48;99320.00;;;-1.56;73.24
62057;BME280;48016;50.284;18.860;2023-02-11T06:47:15;99323.75;;;-1.55;73.32
62057;BME280;48016;50.284;18.860;2023-02-11T06:49:41;99316.85;;;-1.53;73.15
62057;BME280;48016;50.284;18.860;2023-02-11T06:52:08;99316.20;;;-1.51;73.16
62057;BME280;48016;50.284;18.860;2023-02-11T06:54:35;99322.72;;;-1.48;73.08
62057;BME280;48016;50.284;18.860;2023-02-11T06:57:02;99328.88;;;-1.46;73.01
62057;BME280;48016;50.284;18.860;2023-02-11T06:59:28;99323.30;;;-1.45;73.00
62057;BME280;48016;50.284;18.860;2023-02-11T07:01:55;99322.59;;;-1.45;72.89
62057;BME280;48016;50.284;18.860;2023-02-11T07:04:22;99327.52;;;-1.45;72.90
62057;BME280;48016;50.284;18.860;2023-02-11T07:06:48;99316.69;;;-1.44;73.17
62057;BME280;48016;50.284;18.860;2023-02-11T07:09:15;99308.96;;;-1.43;73.17
62057;BME280;48016;50.284;18.860;2023-02-11T07:11:42;99301.46;;;-1.40;73.23
62057;BME280;48016;50.284;18.860;2023-02-11T07:14:09;99301.05;;;-1.40;73.26
62057;BME280;48016;50.284;18.860;2023-02-11T07:16:37;99308.36;;;-1.39;73.28
62057;BME280;48016;50.284;18.860;2023-02-11T07:19:04;99305.95;;;-1.35;73.25
62057;BME280;48016;50.284;18.860;2023-02-11T07:21:31;99310.09;;;-1.31;73.16
62057;BME280;48016;50.284;18.860;2023-02-11T07:23:57;99314.95;;;-1.28;73.24
62057;BME280;48016;50.284;18.860;2023-02-11T07:26:24;99319.21;;;-1.23;73.11
62057;BME280;48016;50.284;18.860;2023-02-11T07:28:51;99310.27;;;-1.17;73.20
62057;BME280;48016;50.284;18.860;2023-02-11T07:31:22;99303.83;;;-1.13;73.23
62057;BME280;48016;50.284;18.860;2023-02-11T07:33:50;99306.64;;;-1.09;73.17
62057;BME280;48016;50.284;18.860;2023-02-11T07:36:18;99302.73;;;-1.02;73.06
62057;BME280;48016;50.284;18.860;2023-02-11T07:38:45;99295.79;;;-0.88;72.98
62057;BME280;48016;50.284;18.860;2023-02-11T07:41:15;99285.67;;;-0.69;72.88
62057;BME280;48016;50.284;18.860;2023-02-11T07:43:43;99280.09;;;-0.52;72.72
62057;BME280;48016;50.284;18.860;2023-02-11T07:46:15;99277.61;;;-0.34;72.59
62057;BME280;48016;50.284;18.860;2023-02-11T07:48:42;99270.38;;;-0.22;72.28
62057;BME280;48016;50.284;18.860;2023-02-11T07:53:36;99264.79;;;-0.08;72.03
62057;BME280;48016;50.284;18.860;2023-02-11T07:56:04;99268.99;;;-0.03;71.88
62057;BME280;48016;50.284;18.860;2023-02-11T07:58:32;99270.93;;;0.06;71.75
62057;BME280;48016;50.284;18.860;2023-02-11T08:01:11;99269.98;;;0.13;71.84
62057;BME280;48016;50.284;18.860;2023-02-11T08:03:39;99270.66;;;0.20;71.48
62057;BME280;48016;50.284;18.860;2023-02-11T08:06:15;99270.70;;;0.27;71.49
62057;BME280;48016;50.284;18.860;2023-02-11T08:08:43;99270.59;;;0.36;71.56
62057;BME280;48016;50.284;18.860;2023-02-11T08:13:36;99265.28;;;0.55;71.40
62057;BME280;48016;50.284;18.860;2023-02-11T08:16:04;99268.84;;;0.63;71.31
62057;BME280;48016;50.284;18.860;2023-02-11T08:18:32;99274.34;;;0.68;71.03
62057;BME280;48016;50.284;18.860;2023-02-11T08:21:07;99273.02;;;0.72;70.90
62057;BME280;48016;50.284;18.860;2023-02-11T08:23:39;99276.46;;;0.79;70.94
62057;BME280;48016;50.284;18.860;2023-02-11T08:26:08;99285.65;;;0.83;70.56
62057;BME280;48016;50.284;18.860;2023-02-11T08:28:37;99290.54;;;0.87;70.16
62057;BME280;48016;50.284;18.860;2023-02-11T08:31:10;99287.88;;;0.90;70.04
62057;BME280;48016;50.284;18.860;2023-02-11T08:33:38;99283.64;;;0.94;69.77
62057;BME280;48016;50.284;18.860;2023-02-11T08:36:11;99282.14;;;0.99;69.95
62057;BME280;48016;50.284;18.860;2023-02-11T08:38:39;99281.70;;;1.06;69.89
62057;BME280;48016;50.284;18.860;2023-02-11T08:41:07;99270.95;;;1.12;69.76
62057;BME280;48016;50.284;18.860;2023-02-11T08:43:34;99271.31;;;1.18;69.68
62057;BME280;48016;50.284;18.860;2023-02-11T08:46:02;99276.02;;;1.22;69.79
62057;BME280;48016;50.284;18.860;2023-02-11T08:48:29;99276.35;;;1.25;69.47
62057;BME280;48016;50.284;18.860;2023-02-11T08:50:56;99275.85;;;1.27;69.11
62057;BME280;48016;50.284;18.860;2023-02-11T08:53:23;99285.49;;;1.31;69.02
62057;BME280;48016;50.284;18.860;2023-02-11T08:55:51;99279.65;;;1.34;68.87
62057;BME280;48016;50.284;18.860;2023-02-11T08:58:20;99278.11;;;1.37;68.71
62057;BME280;48016;50.284;18.860;2023-02-11T09:00:48;99264.34;;;1.43;68.55
62057;BME280;48016;50.284;18.860;2023-02-11T09:03:17;99257.38;;;1.49;68.66
62057;BME280;48016;50.284;18.860;2023-02-11T09:05:46;99272.06;;;1.56;68.31
62057;BME280;48016;50.284;18.860;2023-02-11T09:08:13;99274.08;;;1.63;68.20
62057;BME280;48016;50.284;18.860;2023-02-11T09:10:41;99266.30;;;1.70;68.08
62057;BME280;48016;50.284;18.860;2023-02-11T09:13:08;99271.80;;;1.74;67.56
62057;BME280;48016;50.284;18.860;2023-02-11T09:15:35;99283.25;;;1.75;67.69
62057;BME280;48016;50.284;18.860;2023-02-11T09:18:02;99291.56;;;1.80;67.88
62057;BME280;48016;50.284;18.860;2023-02-11T09:20:30;99291.18;;;1.81;67.44
62057;BME280;48016;50.284;18.860;2023-02-11T09:22:57;99298.93;;;1.79;67.48
62057;BME280;48016;50.284;18.860;2023-02-11T09:25:25;99299.44;;;1.77;67.51
62057;BME280;48016;50.284;18.860;2023-02-11T09:27:51;99305.17;;;1.77;67.47
62057;BME280;48016;50.284;18.860;2023-02-11T09:30:19;99303.42;;;1.78;67.43
62057;BME280;48016;50.284;18.860;2023-02-11T09:32:46;99299.42;;;1.83;67.64
62057;BME280;48016;50.284;18.860;2023-02-11T09:35:13;99302.39;;;1.81;67.31
62057;BME280;48016;50.284;18.860;2023-02-11T09:37:40;99315.55;;;1.81;67.19
62057;BME280;48016;50.284;18.860;2023-02-11T09:40:07;99317.24;;;1.84;67.21
62057;BME280;48016;50.284;18.860;2023-02-11T09:42:59;99310.70;;;1.85;67.12
62057;BME280;48016;50.284;18.860;2023-02-11T09:45:29;99300.02;;;1.88;67.10
62057;BME280;48016;50.284;18.860;2023-02-11T09:48:00;99289.05;;;1.91;67.15
62057;BME280;48016;50.284;18.860;2023-02-11T09:50:32;99291.39;;;1.94;66.92
62057;BME280;48016;50.284;18.860;2023-02-11T09:55:41;99294.97;;;2.03;66.67
62057;BME280;48016;50.284;18.860;2023-02-11T09:58:13;99289.05;;;2.07;66.65
62057;BME280;48016;50.284;18.860;2023-02-11T10:00:58;99285.67;;;2.14;66.52
62057;BME280;48016;50.284;18.860;2023-02-11T10:06:40;99278.98;;;2.35;66.48
62057;BME280;48016;50.284;18.860;2023-02-11T10:09:44;99279.08;;;2.41;66.10
62057;BME280;48016;50.284;18.860;2023-02-11T10:12:54;99264.22;;;2.49;66.19
62057;BME280;48016;50.284;18.860;2023-02-11T10:15:40;99265.87;;;2.55;66.09
62057;BME280;48016;50.284;18.860;2023-02-11T10:21:22;99246.66;;;2.68;65.77
62057;BME280;48016;50.284;18.860;2023-02-11T10:23:53;99244.13;;;2.71;65.79
62057;BME280;48016;50.284;18.860;2023-02-11T10:26:22;99236.67;;;2.76;65.65
62057;BME280;48016;50.284;18.860;2023-02-11T10:28:51;99220.33;;;2.82;65.33
62057;BME280;48016;50.284;18.860;2023-02-11T10:31:24;99206.42;;;2.92;65.29
62057;BME280;48016;50.284;18.860;2023-02-11T10:33:57;99189.67;;;3.03;65.11
62057;BME280;48016;50.284;18.860;2023-02-11T10:36:28;99166.64;;;3.10;65.06
62057;BME280;48016;50.284;18.860;2023-02-11T10:39:08;99149.11;;;3.22;64.82
62057;BME280;48016;50.284;18.860;2023-02-11T10:41:40;99143.28;;;3.40;64.78
62057;BME280;48016;50.284;18.860;2023-02-11T10:44:28;99135.98;;;3.57;64.70
62057;BME280;48016;50.284;18.860;2023-02-11T10:46:58;99127.55;;;3.68;64.51
62057;BME280;48016;50.284;18.860;2023-02-11T10:49:42;99120.90;;;3.70;64.13
62057;BME280;48016;50.284;18.860;2023-02-11T10:52:29;99112.43;;;3.75;64.25
62057;BME280;48016;50.284;18.860;2023-02-11T10:57:33;99113.48;;;3.85;64.15
62057;BME280;48016;50.284;18.860;2023-02-11T11:00:22;99114.73;;;3.88;63.86
62057;BME280;48016;50.284;18.860;2023-02-11T11:02:54;99132.58;;;3.94;63.84
62057;BME280;48016;50.284;18.860;2023-02-11T11:08:12;99138.14;;;3.94;63.68
62057;BME280;48016;50.284;18.860;2023-02-11T11:10:43;99140.14;;;3.93;63.67
62057;BME280;48016;50.284;18.860;2023-02-11T11:13:29;99131.98;;;3.87;63.52
62057;BME280;48016;50.284;18.860;2023-02-11T11:18:43;99127.81;;;3.66;63.68
62057;BME280;48016;50.284;18.860;2023-02-11T11:21:35;99130.44;;;3.57;63.51
62057;BME280;48016;50.284;18.860;2023-02-11T11:24:02;99132.31;;;3.55;63.68
62057;BME280;48016;50.284;18.860;2023-02-11T11:26:41;99133.38;;;3.50;63.84
62057;BME280;48016;50.284;18.860;2023-02-11T11:29:47;99132.78;;;3.48;63.95
62057;BME280;48016;50.284;18.860;2023-02-11T11:32:21;99128.64;;;3.50;63.85
62057;BME280;48016;50.284;18.860;2023-02-11T11:34:54;99132.44;;;3.51;63.97
62057;BME280;48016;50.284;18.860;2023-02-11T11:37:25;99121.50;;;3.49;63.95
62057;BME280;48016;50.284;18.860;2023-02-11T11:42:42;99121.17;;;3.37;64.21
62057;BME280;48016;50.284;18.860;2023-02-11T11:53:22;99108.52;;;3.14;64.60
62057;BME280;48016;50.284;18.860;2023-02-11T11:58:27;99118.27;;;3.14;64.62
62057;BME280;48016;50.284;18.860;2023-02-11T12:04:22;99137.55;;;3.08;64.89
62057;BME280;48016;50.284;18.860;2023-02-11T12:20:37;99170.63;;;2.86;65.40
62057;BME280;48016;50.284;18.860;2023-02-11T12:26:05;99151.38;;;2.79;65.66
62057;BME280;48016;50.284;18.860;2023-02-11T12:28:43;99142.84;;;2.76;66.13
62057;BME280;48016;50.284;18.860;2023-02-11T12:39:21;99136.99;;;2.76;67.46
62057;BME280;48016;50.284;18.860;2023-02-11T12:42:41;99129.28;;;2.74;67.69
62057;BME280;48016;50.284;18.860;2023-02-11T12:53:54;99067.12;;;2.49;68.38
62057;BME280;48016;50.284;18.860;2023-02-11T12:58:59;99036.40;;;2.42;69.25
62057;BME280;48016;50.284;18.860;2023-02-11T13:01:34;99046.31;;;2.40;69.43
62057;BME280;48016;50.284;18.860;2023-02-11T13:04:19;99047.14;;;2.37;69.62
62057;BME280;48016;50.284;18.860;2023-02-11T13:06:58;99060.45;;;2.35;69.92
62057;BME280;48016;50.284;18.860;2023-02-11T13:09:39;99080.66;;;2.31;70.09
62057;BME280;48016;50.284;18.860;2023-02-11T13:12:09;99087.36;;;2.28;70.72
62057;BME280;48016;50.284;18.860;2023-02-11T13:15:02;99065.05;;;2.30;70.74
62057;BME280;48016;50.284;18.860;2023-02-11T13:17:39;99055.62;;;2.30;70.89
62057;BME280;48016;50.284;18.860;2023-02-11T13:20:33;99058.20;;;2.30;71.08
62057;BME280;48016;50.284;18.860;2023-02-11T13:28:41;99063.11;;;2.27;71.67
62057;BME280;48016;50.284;18.860;2023-02-11T13:31:11;99061.48;;;2.24;72.01
62057;BME280;48016;50.284;18.860;2023-02-11T13:33:42;99048.70;;;2.22;72.17
62057;BME280;48016;50.284;18.860;2023-02-11T13:36:12;99028.53;;;2.21;72.41
62057;BME280;48016;50.284;18.860;2023-02-11T13:38:40;98988.91;;;2.21;72.66
62057;BME280;48016;50.284;18.860;2023-02-11T13:41:30;98970.42;;;2.22;73.13
62057;BME280;48016;50.284;18.860;2023-02-11T13:44:24;98969.38;;;2.24;73.31
62057;BME280;48016;50.284;18.860;2023-02-11T13:46:57;98990.80;;;2.23;73.85
62057;BME280;48016;50.284;18.860;2023-02-11T13:49:31;99001.27;;;2.24;73.97
62057;BME280;48016;50.284;18.860;2023-02-11T13:51:59;99000.50;;;2.25;73.96
62057;BME280;48016;50.284;18.860;2023-02-11T13:54:37;99003.00;;;2.25;74.12
62057;BME280;48016;50.284;18.860;2023-02-11T13:59:51;98997.19;;;2.26;74.55
62057;BME280;48016;50.284;18.860;2023-02-11T14:02:29;99004.58;;;2.22;74.30
62057;BME280;48016;50.284;18.860;2023-02-11T14:13:32;99025.14;;;2.11;75.11
62057;BME280;48016;50.284;18.860;2023-02-11T14:26:47;99049.52;;;2.07;75.99
62057;BME280;48016;50.284;18.860;2023-02-11T14:40:35;99060.30;;;1.98;76.79
62057;BME280;48016;50.284;18.860;2023-02-11T14:43:16;99056.42;;;1.96;76.91
62057;BME280;48016;50.284;18.860;2023-02-11T14:45:49;99057.36;;;1.94;77.07
62057;BME280;48016;50.284;18.860;2023-02-11T14:48:19;99063.55;;;1.93;77.31
62057;BME280;48016;50.284;18.860;2023-02-11T14:50:50;99060.34;;;1.93;77.25
62057;BME280;48016;50.284;18.860;2023-02-11T14:53:21;99057.58;;;1.94;77.28
62057;BME280;48016;50.284;18.860;2023-02-11T14:55:53;99055.66;;;1.94;77.30
62057;BME280;48016;50.284;18.860;2023-02-11T14:58:27;99064.66;;;1.94;77.56
62057;BME280;48016;50.284;18.860;2023-02-11T15:01:22;99057.61;;;1.94;77.33
62057;BME280;48016;50.284;18.860;2023-02-11T15:03:52;99071.79;;;1.93;77.71
62057;BME280;48016;50.284;18.860;2023-02-11T15:06:24;99076.95;;;1.93;77.72
62057;BME280;48016;50.284;18.860;2023-02-11T15:11:46;99068.68;;;1.89;77.51
62057;BME280;48016;50.284;18.860;2023-02-11T15:17:03;99071.64;;;1.83;77.23
62057;BME280;48016;50.284;18.860;2023-02-11T15:19:43;99080.05;;;1.81;77.02
62057;BME280;48016;50.284;18.860;2023-02-11T15:22:19;99083.51;;;1.79;77.05
62057;BME280;48016;50.284;18.860;2023-02-11T15:25:12;99089.25;;;1.77;77.34
62057;BME280;48016;50.284;18.860;2023-02-11T15:27:55;99087.82;;;1.75;77.12
62057;BME280;48016;50.284;18.860;2023-02-11T15:33:02;99090.11;;;1.73;77.69
62057;BME280;48016;50.284;18.860;2023-02-11T15:35:37;99099.59;;;1.72;77.73
62057;BME280;48016;50.284;18.860;2023-02-11T15:38:08;99097.11;;;1.72;77.82
62057;BME280;48016;50.284;18.860;2023-02-11T15:40:37;99102.86;;;1.72;77.80
62057;BME280;48016;50.284;18.860;2023-02-11T15:43:06;99106.69;;;1.72;78.07
62057;BME280;48016;50.284;18.860;2023-02-11T15:45:35;99100.64;;;1.74;78.05
62057;BME280;48016;50.284;18.860;2023-02-11T15:48:07;99110.13;;;1.75;78.09
62057;BME280;48016;50.284;18.860;2023-02-11T15:50:38;99116.30;;;1.74;78.19
62057;BME280;48016;50.284;18.860;2023-02-11T15:53:21;99113.84;;;1.73;78.62